Time;durP1;ratioP1;P1;durP2;ratioP2;P2;SDS_P1;SDS_P2;PMS_P1;PMS_P2;Temp;Humidity;BMP_temperature;BMP_pressure;BME280_temperature;BME280_humidity;BME280_pressure;Samples;Min_cycle;Max_cycle;Signal;HPM_P1;HPM_P2
2022/12/29 00:01:44;;;;;;;0.65;0.60;;;19.20;53.70;;;;;;6268070;28;20476;-73
2022/12/29 00:04:45;;;;;;;0.60;0.50;;;19.30;53.70;;;;;;6258630;28;20040;-73
2022/12/29 00:07:45;;;;;;;0.68;0.60;;;19.20;53.60;;;;;;6244217;28;20026;-73
2022/12/29 00:10:46;;;;;;;1.63;0.80;;;19.30;53.70;;;;;;6255988;28;20032;-73
2022/12/29 00:17:08;;;;;;;1.38;0.70;;;19.30;53.70;;;;;;6269626;28;20037;-73
2022/12/29 00:37:02;;;;;;;0.60;0.50;;;19.20;53.60;;;;;;6269019;28;20036;-72
2022/12/29 00:46:42;;;;;;;0.77;0.60;;;19.30;53.70;;;;;;6248740;28;20030;-73
2022/12/29 00:49:43;;;;;;;0.80;0.60;;;19.20;53.60;;;;;;6245750;28;20052;-73
2022/12/29 00:52:43;;;;;;;1.17;0.60;;;19.30;53.70;;;;;;6267178;28;20314;-74
2022/12/29 00:55:44;;;;;;;0.95;0.60;;;19.20;53.60;;;;;;6256461;28;20547;-73
2022/12/29 00:58:45;;;;;;;2.25;0.50;;;19.30;53.80;;;;;;6242695;28;20071;-73
2022/12/29 01:01:46;;;;;;;0.60;0.40;;;19.20;53.70;;;;;;6260529;28;20108;-73
2022/12/29 01:04:47;;;;;;;1.13;0.50;;;19.20;53.60;;;;;;6265241;28;20029;-73
2022/12/29 01:07:48;;;;;;;1.25;0.70;;;19.20;53.70;;;;;;6243721;28;20025;-73
2022/12/29 01:11:02;;;;;;;0.70;0.60;;;19.20;53.70;;;;;;6244711;28;20028;-73
2022/12/29 01:14:03;;;;;;;0.90;0.70;;;19.20;53.70;;;;;;6242134;28;20103;-73
2022/12/29 01:17:05;;;;;;;0.80;0.60;;;19.20;53.70;;;;;;6261109;28;20021;-73
2022/12/29 01:20:06;;;;;;;1.95;0.50;;;19.20;53.70;;;;;;6265647;28;20068;-73
2022/12/29 01:23:06;;;;;;;0.43;0.40;;;19.20;53.70;;;;;;6241976;28;20120;-73
2022/12/29 01:26:15;;;;;;;0.82;0.40;;;19.20;53.70;;;;;;6251787;28;20037;-73
2022/12/29 01:29:17;;;;;;;0.50;0.40;;;19.20;53.70;;;;;;6267656;28;20514;-73
2022/12/29 01:32:17;;;;;;;1.20;0.50;;;19.20;53.70;;;;;;6247654;28;20021;-73
2022/12/29 01:35:18;;;;;;;0.95;0.60;;;19.20;53.70;;;;;;6243602;28;20391;-73
2022/12/29 01:38:18;;;;;;;0.45;0.40;;;19.20;53.70;;;;;;6266472;28;20032;-73
2022/12/29 01:41:19;;;;;;;0.40;0.40;;;19.20;53.70;;;;;;6256955;28;20500;-73
2022/12/29 01:44:51;;;;;;;0.98;0.65;;;19.20;53.70;;;;;;6257496;28;20112;-73
2022/12/29 01:48:00;;;;;;;0.90;0.50;;;19.20;53.70;;;;;;6244487;28;20108;-73
2022/12/29 01:51:01;;;;;;;0.63;0.40;;;19.20;53.70;;;;;;6247400;28;20051;-73
2022/12/29 01:54:07;;;;;;;1.05;0.60;;;19.20;53.70;;;;;;6266543;28;20029;-73
2022/12/29 01:57:15;;;;;;;1.15;0.65;;;19.20;53.70;;;;;;6249293;28;20035;-73
2022/12/29 02:00:16;;;;;;;0.43;0.40;;;19.20;53.70;;;;;;6241617;28;20036;-73
2022/12/29 02:03:19;;;;;;;1.02;0.60;;;19.20;53.70;;;;;;6265426;28;20450;-73
2022/12/29 02:06:28;;;;;;;0.82;0.50;;;19.20;53.70;;;;;;6260116;28;20486;-73
2022/12/29 02:09:29;;;;;;;0.50;0.40;;;19.20;53.80;;;;;;6224860;28;20036;-74
2022/12/29 02:12:29;;;;;;;0.60;0.40;;;19.20;53.70;;;;;;6260274;28;20503;-73
2022/12/29 02:15:52;;;;;;;0.57;0.50;;;19.20;53.70;;;;;;6270374;28;20116;-73
2022/12/29 02:19:10;;;;;;;1.13;0.60;;;19.20;53.80;;;;;;6222908;28;20100;-75
2022/12/29 02:22:17;;;;;;;0.70;0.55;;;19.20;53.80;;;;;;6244908;28;20069;-73
2022/12/29 02:25:55;;;;;;;0.73;0.40;;;19.20;53.80;;;;;;6258977;28;20030;-73
2022/12/29 02:29:11;;;;;;;0.43;0.43;;;19.20;53.80;;;;;;6222382;28;20056;-73
2022/12/29 02:32:37;;;;;;;0.90;0.40;;;19.20;53.70;;;;;;6245948;28;20515;-73
2022/12/29 02:36:10;;;;;;;0.77;0.52;;;19.20;53.80;;;;;;6276069;28;20514;-73
2022/12/29 02:39:27;;;;;;;2.15;0.80;;;19.20;53.70;;;;;;6234543;28;20096;-73
2022/12/29 02:42:34;;;;;;;0.50;0.40;;;19.20;53.80;;;;;;6241558;28;20029;-73
2022/12/29 02:45:54;;;;;;;0.57;0.40;;;19.20;53.80;;;;;;6246829;28;20558;-74
2022/12/29 02:48:58;;;;;;;0.82;0.40;;;19.20;53.80;;;;;;6266305;28;20541;-73
2022/12/29 02:52:23;;;;;;;0.70;0.50;;;19.20;53.80;;;;;;6266427;28;20025;-73
2022/12/29 02:55:24;;;;;;;0.57;0.50;;;19.20;53.80;;;;;;6253985;28;20055;-73
2022/12/29 02:58:25;;;;;;;0.40;0.40;;;19.20;53.80;;;;;;6253528;28;20022;-73
2022/12/29 03:02:16;;;;;;;0.40;0.40;;;19.20;53.80;;;;;;6245137;28;20033;-73
2022/12/29 03:05:22;;;;;;;0.95;0.50;;;19.20;53.80;;;;;;6221539;28;20124;-73
2022/12/29 03:08:39;;;;;;;0.57;0.40;;;19.20;53.80;;;;;;6249665;28;20021;-73
2022/12/29 03:12:14;;;;;;;1.42;0.60;;;19.20;53.80;;;;;;6255949;28;20045;-73
2022/12/29 03:19:01;;;;;;;0.43;0.40;;;19.20;53.80;;;;;;6262010;28;20029;-73
2022/12/29 03:25:32;;;;;;;0.63;0.60;;;19.20;53.80;;;;;;6270192;28;20037;-73
2022/12/29 03:28:38;;;;;;;0.43;0.40;;;19.20;53.80;;;;;;6255836;28;20049;-73
2022/12/29 03:31:39;;;;;;;0.43;0.40;;;19.20;53.80;;;;;;6244725;28;20116;-72
2022/12/29 03:34:40;;;;;;;0.47;0.43;;;19.20;53.80;;;;;;6265681;28;20426;-72
2022/12/29 03:37:57;;;;;;;0.45;0.40;;;19.20;53.80;;;;;;6266225;28;20017;-73
2022/12/29 03:41:03;;;;;;;0.50;0.40;;;19.20;53.80;;;;;;6244384;28;20176;-72
2022/12/29 03:44:05;;;;;;;;;;;19.20;53.80;;;;;;6243632;28;20377;-73
2022/12/29 03:47:07;;;;;;;0.60;0.52;;;19.20;53.80;;;;;;6245569;28;20355;-73
2022/12/29 03:50:08;;;;;;;0.80;0.40;;;19.20;53.80;;;;;;6268971;28;20495;-73
2022/12/29 03:53:09;;;;;;;0.40;0.30;;;19.20;53.80;;;;;;6263807;28;20492;-73
2022/12/29 03:56:09;;;;;;;0.77;0.50;;;19.20;53.80;;;;;;6243771;28;20029;-73
2022/12/29 03:59:10;;;;;;;0.30;0.30;;;19.20;53.80;;;;;;6259339;28;20383;-73
2022/12/29 04:02:10;;;;;;;0.50;0.45;;;19.20;53.80;;;;;;6268504;28;20032;-73
2022/12/29 04:05:11;;;;;;;0.50;0.45;;;19.20;53.80;;;;;;6246628;28;20455;-73
2022/12/29 04:08:12;;;;;;;0.60;0.30;;;19.20;53.80;;;;;;6262148;28;20039;-73
2022/12/29 04:11:12;;;;;;;0.35;0.30;;;19.20;53.80;;;;;;6259491;28;20464;-73
2022/12/29 04:14:13;;;;;;;2.92;0.60;;;19.20;53.80;;;;;;6255434;28;20098;-73
2022/12/29 04:17:14;;;;;;;0.73;0.50;;;19.20;53.80;;;;;;6268689;28;20025;-73
2022/12/29 04:23:39;;;;;;;0.30;0.30;;;19.20;53.80;;;;;;6250710;28;20029;-74
2022/12/29 04:26:40;;;;;;;0.55;0.40;;;19.20;53.80;;;;;;6269608;28;20152;-73
2022/12/29 04:29:40;;;;;;;0.40;0.40;;;19.20;53.80;;;;;;6253811;28;20025;-73
2022/12/29 04:32:41;;;;;;;0.52;0.40;;;19.20;53.80;;;;;;6243197;28;20469;-73
2022/12/29 04:35:43;;;;;;;0.50;0.43;;;19.20;53.80;;;;;;6265192;28;20047;-73
2022/12/29 04:38:43;;;;;;;0.60;0.40;;;19.20;53.80;;;;;;6262287;28;20029;-73
2022/12/29 04:41:44;;;;;;;0.60;0.40;;;19.20;53.80;;;;;;6242701;28;20035;-73
2022/12/29 04:44:44;;;;;;;0.40;0.40;;;19.20;53.80;;;;;;6263487;28;20060;-73
2022/12/29 04:47:45;;;;;;;0.47;0.40;;;19.20;53.80;;;;;;6267525;28;20032;-72
2022/12/29 04:50:48;;;;;;;0.30;0.30;;;19.20;53.80;;;;;;6246766;28;20084;-73
2022/12/29 04:53:49;;;;;;;0.63;0.45;;;19.20;53.80;;;;;;6246035;28;20028;-73
2022/12/29 04:57:00;;;;;;;0.38;0.30;;;19.20;53.80;;;;;;6365909;27;20396;-71
2022/12/29 05:00:41;;;;;;;0.50;0.40;;;19.20;53.80;;;;;;6365494;28;20023;-71
2022/12/29 05:03:42;;;;;;;0.43;0.43;;;19.20;53.80;;;;;;6363837;28;20016;-71
2022/12/29 05:06:43;;;;;;;0.60;0.45;;;19.20;53.80;;;;;;6365673;27;20104;-71
2022/12/29 05:09:43;;;;;;;0.60;0.40;;;19.20;53.80;;;;;;6364014;28;20555;-71
2022/12/29 05:12:44;;;;;;;0.40;0.40;;;19.20;53.80;;;;;;6363936;28;20028;-71
2022/12/29 05:15:51;;;;;;;0.70;0.40;;;19.20;53.80;;;;;;6365115;28;20054;-71
2022/12/29 05:18:51;;;;;;;0.63;0.40;;;19.20;53.80;;;;;;6364258;28;20021;-72
2022/12/29 05:21:52;;;;;;;0.50;0.40;;;19.20;53.80;;;;;;6365343;27;20023;-71
2022/12/29 05:24:53;;;;;;;0.50;0.40;;;19.20;53.80;;;;;;6365034;27;20018;-71
2022/12/29 05:27:54;;;;;;;0.50;0.43;;;19.20;53.80;;;;;;6365302;27;20019;-71
2022/12/29 05:30:54;;;;;;;0.85;0.57;;;19.20;53.80;;;;;;6365175;27;20116;-71
2022/12/29 05:33:55;;;;;;;0.70;0.50;;;19.20;53.80;;;;;;6364744;27;20472;-71
2022/12/29 05:36:56;;;;;;;0.32;0.30;;;19.20;53.80;;;;;;6364895;27;20020;-70
2022/12/29 05:39:56;;;;;;;0.43;0.35;;;19.20;53.80;;;;;;6364861;27;20059;-71
2022/12/29 05:42:57;;;;;;;0.70;0.40;;;19.20;53.80;;;;;;6364499;27;20030;-70
2022/12/29 05:45:58;;;;;;;0.38;0.35;;;19.20;53.80;;;;;;6364562;27;20468;-71
2022/12/29 05:48:58;;;;;;;0.45;0.45;;;19.20;53.80;;;;;;6364742;27;20036;-70
2022/12/29 05:51:59;;;;;;;0.65;0.50;;;19.20;53.80;;;;;;6364268;27;20058;-71
2022/12/29 05:55:00;;;;;;;0.63;0.40;;;19.20;53.80;;;;;;6363946;27;20118;-70
2022/12/29 05:58:01;;;;;;;0.50;0.45;;;19.20;53.80;;;;;;6362809;28;20024;-71
2022/12/29 06:01:01;;;;;;;0.30;0.30;;;19.20;53.90;;;;;;6361127;27;20049;-71
2022/12/29 06:04:02;;;;;;;0.50;0.40;;;19.20;53.90;;;;;;6338843;28;20096;-71
2022/12/29 06:07:03;;;;;;;0.32;0.30;;;19.20;53.80;;;;;;6327491;28;20415;-70
2022/12/29 06:10:05;;;;;;;0.40;0.40;;;19.20;53.80;;;;;;6320963;28;20085;-71
2022/12/29 06:13:05;;;;;;;0.30;0.30;;;19.20;53.80;;;;;;6345391;28;20020;-71
2022/12/29 06:16:06;;;;;;;0.55;0.40;;;19.20;53.80;;;;;;6346539;28;20038;-71
2022/12/29 06:19:07;;;;;;;0.30;0.30;;;19.20;53.80;;;;;;6346531;28;20061;-70
2022/12/29 06:22:08;;;;;;;0.40;0.40;;;19.20;53.80;;;;;;6346826;28;20616;-71
2022/12/29 06:25:09;;;;;;;0.38;0.38;;;19.20;53.80;;;;;;6344936;28;20027;-70
2022/12/29 06:28:10;;;;;;;0.52;0.50;;;19.20;53.80;;;;;;6331701;28;20036;-70
2022/12/29 06:31:11;;;;;;;0.75;0.75;;;19.20;53.80;;;;;;6328989;28;20068;-71
2022/12/29 06:34:12;;;;;;;2.53;0.60;;;19.20;53.70;;;;;;6345547;28;20027;-71
2022/12/29 06:37:14;;;;;;;0.30;0.30;;;19.30;53.70;;;;;;6344533;28;20102;-70
2022/12/29 06:40:15;;;;;;;3.60;0.45;;;19.30;53.80;;;;;;6343678;28;20034;-70
2022/12/29 06:43:16;;;;;;;1.20;0.40;;;19.20;53.80;;;;;;6345538;28;20508;-70
2022/12/29 06:46:16;;;;;;;3.65;0.40;;;19.20;53.80;;;;;;6345383;28;20027;-70
2022/12/29 06:49:17;;;;;;;2.25;0.50;;;19.20;53.90;;;;;;6345691;28;20486;-70
2022/12/29 06:52:19;;;;;;;1.77;0.60;;;19.20;53.90;;;;;;6343432;28;20028;-70
2022/12/29 06:55:21;;;;;;;0.43;0.40;;;19.20;53.90;;;;;;6343430;28;20534;-71
2022/12/29 06:58:21;;;;;;;2.55;0.50;;;19.20;53.90;;;;;;6345473;28;20020;-70
2022/12/29 07:01:22;;;;;;;0.70;0.30;;;19.20;53.90;;;;;;6338959;28;20380;-70
2022/12/29 07:04:23;;;;;;;0.57;0.40;;;19.20;53.90;;;;;;6347542;28;20024;-69
2022/12/29 07:07:24;;;;;;;1.23;0.70;;;19.20;53.90;;;;;;6337093;28;20066;-69
2022/12/29 07:10:25;;;;;;;0.95;0.50;;;19.20;54.00;;;;;;6346980;28;20560;-71
2022/12/29 07:13:25;;;;;;;1.45;0.32;;;19.20;54.00;;;;;;6346756;28;20026;-71
2022/12/29 07:16:26;;;;;;;2.28;0.50;;;19.20;54.00;;;;;;6345760;28;20028;-70
2022/12/29 07:19:27;;;;;;;0.95;0.55;;;19.20;54.00;;;;;;6344179;28;20042;-70
2022/12/29 07:22:28;;;;;;;2.90;0.82;;;19.20;54.00;;;;;;6346777;28;20023;-72
2022/12/29 07:25:29;;;;;;;2.70;0.60;;;19.20;54.10;;;;;;6346012;28;20031;-73
2022/12/29 07:28:30;;;;;;;2.85;0.65;;;19.20;54.00;;;;;;6347489;28;20109;-70
2022/12/29 07:31:31;;;;;;;4.10;0.93;;;19.20;54.00;;;;;;6345666;28;20027;-72
2022/12/29 07:34:31;;;;;;;1.25;0.60;;;19.20;53.70;;;;;;6346235;28;20038;-72
2022/12/29 07:37:33;;;;;;;1.05;0.55;;;19.30;53.80;;;;;;6346810;28;20019;-72
2022/12/29 07:40:34;;;;;;;3.38;0.80;;;19.30;53.40;;;;;;6346469;28;20019;-72
2022/12/29 07:43:35;;;;;;;7.07;0.88;;;19.30;53.40;;;;;;6346361;28;20031;-72
2022/12/29 07:46:35;;;;;;;2.13;0.85;;;19.40;53.60;;;;;;6346085;28;20102;-72
2022/12/29 07:49:36;;;;;;;2.40;0.88;;;19.30;53.60;;;;;;6346426;28;20622;-72
2022/12/29 07:52:37;;;;;;;2.38;1.23;;;19.30;53.60;;;;;;6346582;28;20043;-72
2022/12/29 07:55:37;;;;;;;1.55;0.70;;;19.40;53.60;;;;;;6345667;28;20496;-72
2022/12/29 07:58:38;;;;;;;8.07;0.88;;;19.40;53.70;;;;;;6345856;28;20020;-72
2022/12/29 08:01:38;;;;;;;3.03;0.90;;;19.40;53.70;;;;;;6346225;28;20024;-72
2022/12/29 08:04:39;;;;;;;5.68;0.52;;;19.30;53.60;;;;;;6336875;28;20705;-72
2022/12/29 08:07:40;;;;;;;5.13;0.82;;;19.40;54.40;;;;;;6347886;28;20384;-72
2022/12/29 08:10:40;;;;;;;5.30;0.80;;;19.40;53.70;;;;;;6347441;28;20054;-72
2022/12/29 08:13:41;;;;;;;1.75;0.70;;;19.30;53.70;;;;;;6347174;28;20391;-72
2022/12/29 08:16:42;;;;;;;0.98;0.60;;;19.30;53.80;;;;;;6347264;28;20024;-72
2022/12/29 08:19:42;;;;;;;4.68;1.08;;;19.30;53.90;;;;;;6347141;28;20536;-72
2022/12/29 08:22:43;;;;;;;0.70;0.60;;;19.30;53.90;;;;;;6347084;28;20067;-72
2022/12/29 08:25:44;;;;;;;1.05;0.60;;;19.30;53.90;;;;;;6345839;28;20118;-72
2022/12/29 08:28:45;;;;;;;1.10;0.52;;;19.30;53.80;;;;;;6345770;28;20030;-72
2022/12/29 08:31:46;;;;;;;1.05;0.63;;;19.30;53.90;;;;;;6347152;28;20625;-72
2022/12/29 08:34:47;;;;;;;0.90;0.60;;;19.30;53.90;;;;;;6345444;28;20027;-72
2022/12/29 08:37:48;;;;;;;0.90;0.60;;;19.30;53.80;;;;;;6347231;28;20434;-72
2022/12/29 08:40:48;;;;;;;1.00;0.65;;;19.30;53.90;;;;;;6345529;28;20030;-72
2022/12/29 08:43:49;;;;;;;2.35;0.70;;;19.30;53.90;;;;;;6346304;28;20020;-72
2022/12/29 08:46:50;;;;;;;1.48;0.50;;;19.30;53.90;;;;;;6345686;28;20019;-70
2022/12/29 08:49:51;;;;;;;0.73;0.65;;;19.30;53.90;;;;;;6345793;28;20031;-70
2022/12/29 08:52:52;;;;;;;0.93;0.60;;;19.30;53.80;;;;;;6345424;28;20076;-70
2022/12/29 08:55:58;;;;;;;1.45;0.85;;;19.30;53.90;;;;;;6343902;28;20538;-70
2022/12/29 08:58:59;;;;;;;1.30;0.50;;;19.30;53.80;;;;;;6345484;28;20016;-70
2022/12/29 09:02:01;;;;;;;2.10;0.80;;;19.30;53.90;;;;;;6345265;28;20456;-70
2022/12/29 09:05:02;;;;;;;0.52;0.50;;;19.30;53.80;;;;;;6345016;28;20076;-70
2022/12/29 09:08:04;;;;;;;1.23;0.70;;;19.30;53.80;;;;;;6345022;28;20024;-70
2022/12/29 09:11:15;;;;;;;1.05;0.63;;;19.30;53.90;;;;;;6345419;28;20020;-70
2022/12/29 09:14:15;;;;;;;1.27;0.70;;;19.30;53.80;;;;;;6343502;28;20027;-70
2022/12/29 09:20:36;;;;;;;2.00;0.60;;;19.30;53.80;;;;;;6335469;28;20052;-70
2022/12/29 09:23:38;;;;;;;1.20;0.60;;;19.30;53.90;;;;;;6342745;28;20034;-70
2022/12/29 09:26:38;;;;;;;0.77;0.60;;;19.30;53.70;;;;;;6344260;28;20020;-69
2022/12/29 09:29:39;;;;;;;1.02;0.60;;;19.30;53.70;;;;;;6344025;28;20030;-70
2022/12/29 09:32:40;;;;;;;0.80;0.70;;;19.30;53.90;;;;;;6344103;28;20121;-70
2022/12/29 09:35:57;;;;;;;1.38;0.63;;;19.30;53.90;;;;;;6344148;28;20024;-70
2022/12/29 09:38:58;;;;;;;1.48;0.60;;;19.30;53.90;;;;;;6342948;28;20054;-70
2022/12/29 09:42:22;;;;;;;0.95;0.60;;;19.30;53.80;;;;;;6345079;28;20492;-70
2022/12/29 09:45:33;;;;;;;1.30;0.60;;;19.30;53.90;;;;;;6342296;28;20032;-70
2022/12/29 09:48:41;;;;;;;0.57;0.45;;;19.30;53.90;;;;;;6348964;27;20349;-70
2022/12/29 09:51:46;;;;;;;1.70;0.65;;;19.30;53.80;;;;;;6348926;28;20024;-71
2022/12/29 09:54:53;;;;;;;0.50;0.45;;;19.30;53.70;;;;;;6348545;28;20492;-70
2022/12/29 09:58:02;;;;;;;0.77;0.50;;;19.30;53.90;;;;;;6347730;28;20102;-70
2022/12/29 10:01:14;;;;;;;1.52;0.82;;;19.30;53.90;;;;;;6348856;28;20188;-70
2022/12/29 10:04:15;;;;;;;2.33;0.70;;;19.30;53.70;;;;;;6348253;28;20011;-70
2022/12/29 10:07:42;;;;;;;3.65;0.60;;;19.30;53.70;;;;;;6348494;28;20028;-70
2022/12/29 10:10:56;;;;;;;0.82;0.70;;;19.30;53.70;;;;;;6348081;28;20016;-70
2022/12/29 10:14:03;;;;;;;3.25;0.80;;;19.30;53.70;;;;;;6330176;28;20121;-70
2022/12/29 10:17:15;;;;;;;2.83;0.50;;;19.30;53.70;;;;;;6347867;28;20024;-70
2022/12/29 10:20:49;;;;;;;6.75;0.68;;;19.30;53.70;;;;;;6347717;28;20708;-70
2022/12/29 10:23:52;;;;;;;1.27;0.60;;;19.30;53.80;;;;;;6336806;28;20515;-70
2022/12/29 10:26:57;;;;;;;1.90;0.60;;;19.30;53.80;;;;;;6348217;28;20016;-70
2022/12/29 10:29:59;;;;;;;;;;;19.30;53.80;;;;;;6348353;28;20039;-70
2022/12/29 10:33:07;;;;;;;1.58;0.60;;;19.30;53.80;;;;;;6348000;28;20348;-70
2022/12/29 10:36:38;;;;;;;0.50;0.40;;;19.30;53.80;;;;;;6347546;28;20020;-70
2022/12/29 10:40:00;;;;;;;1.65;0.45;;;19.30;53.70;;;;;;6346009;28;20020;-70
2022/12/29 10:43:05;;;;;;;2.50;0.77;;;19.30;53.80;;;;;;6346284;28;20249;-70
2022/12/29 10:46:10;;;;;;;0.80;0.50;;;19.30;53.80;;;;;;6347171;28;20036;-70
2022/12/29 10:49:16;;;;;;;1.13;0.50;;;19.30;53.80;;;;;;6347403;28;20023;-71
2022/12/29 10:52:20;;;;;;;0.77;0.50;;;19.30;53.80;;;;;;6329673;28;20432;-70
2022/12/29 10:55:35;;;;;;;3.97;0.70;;;19.30;53.80;;;;;;6318680;28;20173;-70
2022/12/29 10:58:36;;;;;;;1.58;0.32;;;19.30;53.80;;;;;;6330278;28;20430;-71
2022/12/29 11:02:06;;;;;;;1.10;0.68;;;19.30;53.80;;;;;;6341244;27;20035;-71
2022/12/29 11:05:16;;;;;;;2.15;0.55;;;19.40;54.30;;;;;;6345137;28;20078;-71
2022/12/29 11:08:25;;;;;;;1.25;0.73;;;19.40;53.80;;;;;;6346646;28;20491;-71
2022/12/29 11:11:32;;;;;;;1.20;0.70;;;19.40;53.50;;;;;;6351962;27;20475;-71
2022/12/29 11:14:35;;;;;;;1.30;0.50;;;19.40;53.30;;;;;;6359204;27;20158;-70
2022/12/29 11:17:48;;;;;;;2.30;0.77;;;19.50;53.20;;;;;;6344896;28;20472;-70
2022/12/29 11:21:01;;;;;;;1.02;0.50;;;19.50;53.10;;;;;;6344481;28;20020;-71
2022/12/29 11:24:04;;;;;;;2.00;0.38;;;19.50;53.10;;;;;;6337000;28;20123;-71
2022/12/29 11:27:15;;;;;;;1.13;0.60;;;19.50;53.20;;;;;;6346234;28;20055;-71
2022/12/29 11:30:29;;;;;;;0.95;0.68;;;19.50;53.30;;;;;;6344536;28;20020;-70
2022/12/29 11:33:31;;;;;;;3.42;0.40;;;19.50;53.30;;;;;;6343822;28;20049;-71
2022/12/29 11:36:35;;;;;;;1.40;0.50;;;19.50;53.40;;;;;;6345804;28;20043;-71
2022/12/29 11:39:43;;;;;;;0.85;0.60;;;19.50;53.40;;;;;;6344606;28;20027;-70
2022/12/29 11:42:47;;;;;;;0.82;0.50;;;19.50;53.40;;;;;;6335077;28;20111;-70
2022/12/29 11:45:48;;;;;;;1.40;0.73;;;19.40;53.40;;;;;;6344311;28;20500;-70
2022/12/29 11:48:49;;;;;;;0.65;0.45;;;19.50;53.40;;;;;;6345078;28;20028;-70
2022/12/29 11:51:56;;;;;;;1.23;0.60;;;19.50;53.40;;;;;;6344992;27;20369;-71
2022/12/29 11:54:57;;;;;;;0.60;0.50;;;19.50;53.40;;;;;;6337732;28;20052;-70
2022/12/29 11:58:02;;;;;;;1.23;0.60;;;19.50;53.40;;;;;;6343438;28;20129;-71
2022/12/29 12:01:16;;;;;;;2.58;0.52;;;19.50;53.40;;;;;;6344548;28;20460;-70
2022/12/29 12:04:21;;;;;;;1.25;0.65;;;19.50;53.40;;;;;;6335492;28;20492;-70
2022/12/29 12:07:31;;;;;;;1.98;0.50;;;19.50;53.40;;;;;;6343700;28;20476;-71
2022/12/29 12:10:38;;;;;;;1.45;0.65;;;19.40;53.40;;;;;;6344539;28;20019;-70
2022/12/29 12:13:54;;;;;;;0.95;0.50;;;19.50;53.40;;;;;;6363639;27;20024;-70
2022/12/29 12:16:58;;;;;;;1.48;0.60;;;19.50;53.40;;;;;;6342201;28;20135;-71
2022/12/29 12:20:10;;;;;;;2.58;0.60;;;19.50;53.50;;;;;;6343425;28;20015;-70
2022/12/29 12:23:18;;;;;;;7.03;0.80;;;19.50;53.70;;;;;;6342841;28;20023;-71
2022/12/29 12:26:27;;;;;;;1.40;0.50;;;19.50;53.80;;;;;;6342187;28;20027;-71
2022/12/29 12:29:41;;;;;;;1.95;0.63;;;19.50;53.80;;;;;;6343219;28;20357;-71
2022/12/29 12:33:15;;;;;;;2.30;0.70;;;19.50;53.70;;;;;;6344172;28;20077;-71
2022/12/29 12:36:27;;;;;;;1.48;0.50;;;19.50;53.70;;;;;;6333547;28;20028;-71
2022/12/29 12:39:40;;;;;;;3.58;0.70;;;19.50;53.70;;;;;;6321517;28;20024;-71
2022/12/29 12:43:14;;;;;;;3.58;0.47;;;19.50;53.70;;;;;;6334943;28;20024;-70
2022/12/29 12:46:50;;;;;;;2.78;0.60;;;19.50;53.70;;;;;;6335476;28;20035;-72
2022/12/29 12:50:15;;;;;;;7.40;0.90;;;19.50;53.80;;;;;;6330061;28;20012;-71
2022/12/29 12:53:25;;;;;;;1.38;0.68;;;19.50;53.80;;;;;;6343940;28;20511;-71
2022/12/29 12:56:43;;;;;;;1.98;0.50;;;19.50;53.90;;;;;;6341769;28;20039;-71
2022/12/29 12:59:55;;;;;;;3.45;0.70;;;19.50;53.90;;;;;;6343380;28;20096;-71
2022/12/29 13:03:10;;;;;;;1.42;0.70;;;19.40;54.50;;;;;;6343546;28;20481;-71
2022/12/29 13:06:17;;;;;;;1.42;0.50;;;19.40;53.90;;;;;;6337122;28;20034;-71
2022/12/29 13:09:37;;;;;;;3.33;0.70;;;19.40;53.90;;;;;;6342983;28;20024;-71
2022/12/29 13:13:03;;;;;;;2.03;0.68;;;19.40;54.00;;;;;;6343588;28;20114;-71
2022/12/29 13:16:17;;;;;;;0.70;0.50;;;19.40;54.00;;;;;;6342195;28;20484;-71
2022/12/29 13:19:29;;;;;;;2.33;0.60;;;19.40;53.90;;;;;;6331375;28;20027;-71
2022/12/29 13:22:34;;;;;;;1.85;0.70;;;19.40;54.00;;;;;;6347736;28;20055;-71
2022/12/29 13:25:41;;;;;;;;;;;19.40;54.00;;;;;;6348132;28;20103;-71
2022/12/29 13:28:57;;;;;;;1.70;0.50;;;19.40;53.90;;;;;;6347250;28;19908;-70
2022/12/29 13:32:22;;;;;;;4.38;0.60;;;19.40;54.00;;;;;;6347742;28;20028;-71
2022/12/29 13:35:51;;;;;;;1.77;0.50;;;19.40;53.90;;;;;;6347104;28;20023;-71
2022/12/29 13:39:10;;;;;;;0.75;0.55;;;19.40;54.10;;;;;;6348102;28;20024;-71
2022/12/29 13:42:12;;;;;;;1.38;0.60;;;19.40;54.00;;;;;;6348147;28;20085;-72
2022/12/29 13:45:26;;;;;;;1.52;0.40;;;19.40;54.00;;;;;;6348150;28;20027;-71
2022/12/29 13:49:04;;;;;;;0.85;0.35;;;19.40;54.00;;;;;;6339109;28;20036;-70
2022/12/29 13:52:16;;;;;;;1.67;0.60;;;19.40;54.40;;;;;;6322884;28;20039;-72
2022/12/29 13:55:35;;;;;;;1.05;0.43;;;19.40;54.00;;;;;;6347818;28;20047;-71
2022/12/29 13:58:58;;;;;;;2.47;0.60;;;19.40;54.00;;;;;;6348107;28;20068;-71
2022/12/29 14:02:14;;;;;;;0.52;0.40;;;19.40;54.00;;;;;;6348753;28;20020;-70
2022/12/29 14:05:18;;;;;;;2.28;0.50;;;19.40;54.00;;;;;;6346902;28;20055;-70
2022/12/29 14:08:19;;;;;;;3.97;0.50;;;19.40;54.00;;;;;;6346124;28;20084;-70
2022/12/29 14:11:24;;;;;;;0.90;0.45;;;19.40;54.00;;;;;;6346391;28;20762;-70
2022/12/29 14:14:30;;;;;;;1.42;0.50;;;19.40;54.00;;;;;;6347613;28;20099;-72
2022/12/29 14:17:31;;;;;;;0.38;0.30;;;19.40;54.10;;;;;;6346157;28;20507;-71
2022/12/29 14:20:32;;;;;;;1.00;0.40;;;19.40;54.10;;;;;;6347225;28;20019;-71
2022/12/29 14:23:42;;;;;;;1.55;0.50;;;19.40;54.10;;;;;;6345533;28;20129;-71
2022/12/29 14:26:43;;;;;;;1.02;0.50;;;19.40;54.10;;;;;;6343424;28;20555;-70
2022/12/29 14:29:45;;;;;;;0.75;0.43;;;19.40;54.10;;;;;;6346918;28;20027;-71
2022/12/29 14:33:12;;;;;;;1.38;0.50;;;19.40;54.20;;;;;;6345199;28;20384;-71
2022/12/29 14:36:34;;;;;;;1.23;0.43;;;19.40;54.20;;;;;;6346820;28;20045;-70
2022/12/29 14:39:40;;;;;;;0.60;0.40;;;19.40;54.30;;;;;;6345534;28;20023;-71
2022/12/29 14:42:42;;;;;;;7.00;0.55;;;19.40;54.20;;;;;;6346900;28;20023;-70
2022/12/29 14:45:48;;;;;;;3.10;0.30;;;19.40;54.20;;;;;;6346565;28;20039;-72
2022/12/29 14:48:56;;;;;;;2.05;0.60;;;19.40;54.20;;;;;;6347116;28;20058;-71
2022/12/29 14:52:26;;;;;;;2.17;0.55;;;19.40;54.20;;;;;;6347026;28;20034;-71
2022/12/29 14:55:46;;;;;;;1.70;0.50;;;19.40;54.20;;;;;;6347066;28;20040;-71
2022/12/29 14:58:57;;;;;;;1.02;0.50;;;19.40;54.10;;;;;;6346852;28;20030;-71
2022/12/29 15:01:59;;;;;;;2.53;0.70;;;19.40;54.00;;;;;;6346554;28;20095;-74
2022/12/29 15:05:02;;;;;;;1.13;0.47;;;19.40;54.10;;;;;;6346389;28;20028;-74
2022/12/29 15:08:04;;;;;;;2.05;0.30;;;19.40;54.10;;;;;;6346325;28;20076;-73
2022/12/29 15:11:18;;;;;;;7.85;0.50;;;19.40;54.20;;;;;;6345317;28;20035;-73
2022/12/29 15:14:35;;;;;;;3.60;0.87;;;19.40;54.10;;;;;;6320650;28;20100;-74
2022/12/29 15:17:38;;;;;;;1.77;0.50;;;19.40;54.10;;;;;;6330251;28;20111;-73
2022/12/29 15:20:42;;;;;;;2.20;0.50;;;19.40;54.10;;;;;;6344798;28;20032;-74
2022/12/29 15:23:45;;;;;;;0.60;0.30;;;19.40;54.20;;;;;;6344293;28;20024;-74
2022/12/29 15:26:53;;;;;;;0.88;0.65;;;19.40;54.10;;;;;;6345436;28;20273;-74
2022/12/29 15:30:03;;;;;;;2.15;0.40;;;19.40;54.20;;;;;;6344866;28;20024;-74
2022/12/29 15:33:18;;;;;;;1.38;0.80;;;19.40;54.20;;;;;;6340984;28;20354;-74
2022/12/29 15:36:26;;;;;;;3.28;0.90;;;19.40;54.20;;;;;;6339397;28;20034;-73
2022/12/29 15:39:29;;;;;;;0.52;0.30;;;19.40;54.20;;;;;;6343167;28;20020;-74
2022/12/29 15:42:39;;;;;;;0.73;0.35;;;19.40;54.20;;;;;;6345107;28;20639;-73
2022/12/29 15:45:40;;;;;;;3.97;0.63;;;19.40;54.20;;;;;;6345052;28;20073;-73
2022/12/29 15:48:41;;;;;;;0.68;0.43;;;19.40;54.20;;;;;;6345160;28;20027;-73
2022/12/29 15:51:43;;;;;;;0.82;0.40;;;19.40;54.30;;;;;;6343779;28;20081;-74
2022/12/29 15:54:44;;;;;;;1.48;0.60;;;19.40;54.20;;;;;;6343779;28;20043;-74
2022/12/29 15:57:44;;;;;;;1.75;0.40;;;19.40;54.30;;;;;;6345039;28;20020;-72
2022/12/29 16:00:53;;;;;;;5.68;0.70;;;19.40;54.30;;;;;;6345383;28;20496;-74
2022/12/29 16:03:55;;;;;;;1.05;0.47;;;19.40;54.30;;;;;;6343409;28;20020;-73
2022/12/29 16:07:06;;;;;;;4.22;0.60;;;19.40;54.30;;;;;;6344292;28;20027;-73
2022/12/29 16:14:45;;;;;;;1.20;0.50;;;19.40;54.30;;;;;;6345301;28;20019;-73
2022/12/29 16:17:51;;;;;;;1.05;0.40;;;19.40;54.30;;;;;;6323763;28;20081;-72
2022/12/29 16:20:53;;;;;;;1.00;0.30;;;19.40;54.30;;;;;;6343919;28;20414;-73
2022/12/29 16:23:56;;;;;;;2.38;0.45;;;19.40;54.30;;;;;;6344283;28;20031;-73
2022/12/29 16:27:29;;;;;;;1.20;0.50;;;19.40;54.30;;;;;;6344581;28;20019;-72
2022/12/29 16:30:32;;;;;;;2.03;0.50;;;19.40;54.30;;;;;;6323062;28;20028;-73
2022/12/29 16:33:54;;;;;;;1.05;0.50;;;19.40;54.30;;;;;;6325503;28;20020;-74
2022/12/29 16:36:57;;;;;;;0.68;0.25;;;19.40;54.30;;;;;;6344349;28;20085;-74
2022/12/29 16:40:27;;;;;;;1.05;0.47;;;19.40;54.30;;;;;;6344495;28;20104;-74
2022/12/29 16:43:31;;;;;;;0.65;0.50;;;19.40;54.30;;;;;;6342829;28;20075;-73
2022/12/29 16:46:32;;;;;;;1.95;0.73;;;19.40;54.40;;;;;;6344786;28;20024;-73
2022/12/29 16:49:35;;;;;;;1.17;0.60;;;19.40;54.30;;;;;;6343860;28;20027;-73
2022/12/29 16:52:36;;;;;;;1.08;0.43;;;19.40;54.40;;;;;;6342934;28;20514;-73
2022/12/29 16:55:37;;;;;;;0.65;0.40;;;19.40;54.40;;;;;;6343377;28;20062;-73
2022/12/29 16:58:38;;;;;;;0.98;0.40;;;19.40;54.30;;;;;;6344030;28;20036;-74